sensor_id;sensor_type;location;lat;lon;timestamp;pressure;altitude;pressure_sealevel;temperature;humidity
41102;BME280;26845;50.190;19.178;2023-02-28T00:00:50;99899.42;;;0.32;62.59
41102;BME280;26845;50.190;19.178;2023-02-28T00:03:16;99898.19;;;0.34;62.69
41102;BME280;26845;50.190;19.178;2023-02-28T00:05:42;99896.73;;;0.39;62.79
41102;BME280;26845;50.190;19.178;2023-02-28T00:08:08;99894.60;;;0.36;62.41
41102;BME280;26845;50.190;19.178;2023-02-28T00:10:34;99898.23;;;0.36;62.65
41102;BME280;26845;50.190;19.178;2023-02-28T00:13:05;99895.23;;;0.34;62.56
41102;BME280;26845;50.190;19.178;2023-02-28T00:15:31;99897.67;;;0.28;62.55
41102;BME280;26845;50.190;19.178;2023-02-28T00:18:01;99901.02;;;0.23;62.35
41102;BME280;26845;50.190;19.178;2023-02-28T00:20:26;99897.77;;;0.17;62.64
41102;BME280;26845;50.190;19.178;2023-02-28T00:22:54;99896.35;;;0.17;62.64
41102;BME280;26845;50.190;19.178;2023-02-28T00:25:22;99901.33;;;0.15;62.18
41102;BME280;26845;50.190;19.178;2023-02-28T00:27:48;99900.37;;;0.09;62.49
41102;BME280;26845;50.190;19.178;2023-02-28T00:30:17;99899.88;;;0.14;63.02
41102;BME280;26845;50.190;19.178;2023-02-28T00:32:43;99901.17;;;0.18;63.12
41102;BME280;26845;50.190;19.178;2023-02-28T00:35:10;99903.88;;;0.23;63.17
41102;BME280;26845;50.190;19.178;2023-02-28T00:37:35;99902.69;;;0.30;63.34
41102;BME280;26845;50.190;19.178;2023-02-28T00:40:02;99906.23;;;0.38;63.10
41102;BME280;26845;50.190;19.178;2023-02-28T00:42:34;99903.84;;;0.42;62.85
41102;BME280;26845;50.190;19.178;2023-02-28T00:45:00;99904.48;;;0.42;62.78
41102;BME280;26845;50.190;19.178;2023-02-28T00:47:26;99904.86;;;0.37;62.71
41102;BME280;26845;50.190;19.178;2023-02-28T00:49:53;99907.15;;;0.34;62.49
41102;BME280;26845;50.190;19.178;2023-02-28T00:52:19;99908.48;;;0.33;62.55
41102;BME280;26845;50.190;19.178;2023-02-28T00:54:45;99910.83;;;0.34;62.55
41102;BME280;26845;50.190;19.178;2023-02-28T00:57:13;99915.63;;;0.37;62.76
41102;BME280;26845;50.190;19.178;2023-02-28T00:59:40;99918.91;;;0.40;62.96
41102;BME280;26845;50.190;19.178;2023-02-28T01:02:05;99917.15;;;0.41;62.79
41102;BME280;26845;50.190;19.178;2023-02-28T01:04:31;99914.38;;;0.44;63.08
41102;BME280;26845;50.190;19.178;2023-02-28T01:06:57;99911.84;;;0.47;62.97
41102;BME280;26845;50.190;19.178;2023-02-28T01:09:24;99912.40;;;0.49;62.93
41102;BME280;26845;50.190;19.178;2023-02-28T01:11:50;99913.65;;;0.52;63.15
41102;BME280;26845;50.190;19.178;2023-02-28T01:14:16;99907.45;;;0.53;63.15
41102;BME280;26845;50.190;19.178;2023-02-28T01:16:44;99910.90;;;0.55;62.89
41102;BME280;26845;50.190;19.178;2023-02-28T01:19:09;99911.98;;;0.56;62.85
41102;BME280;26845;50.190;19.178;2023-02-28T01:21:35;99911.97;;;0.56;62.72
41102;BME280;26845;50.190;19.178;2023-02-28T01:24:04;99910.23;;;0.57;62.80
41102;BME280;26845;50.190;19.178;2023-02-28T01:26:30;99910.41;;;0.56;62.91
41102;BME280;26845;50.190;19.178;2023-02-28T01:28:56;99909.05;;;0.54;62.90
41102;BME280;26845;50.190;19.178;2023-02-28T01:31:23;99905.73;;;0.53;63.10
41102;BME280;26845;50.190;19.178;2023-02-28T01:33:49;99903.54;;;0.53;63.34
41102;BME280;26845;50.190;19.178;2023-02-28T01:36:23;99905.89;;;0.53;63.46
41102;BME280;26845;50.190;19.178;2023-02-28T01:38:49;99905.48;;;0.51;62.96
41102;BME280;26845;50.190;19.178;2023-02-28T01:41:24;99903.50;;;0.48;63.05
41102;BME280;26845;50.190;19.178;2023-02-28T01:43:55;99903.84;;;0.44;63.10
41102;BME280;26845;50.190;19.178;2023-02-28T01:46:22;99896.77;;;0.39;63.08
41102;BME280;26845;50.190;19.178;2023-02-28T01:48:51;99900.19;;;0.32;63.57
41102;BME280;26845;50.190;19.178;2023-02-28T01:51:38;99895.81;;;0.22;63.49
41102;BME280;26845;50.190;19.178;2023-02-28T01:54:18;99895.84;;;0.14;63.74
41102;BME280;26845;50.190;19.178;2023-02-28T01:56:51;99891.61;;;0.11;64.08
41102;BME280;26845;50.190;19.178;2023-02-28T01:59:33;99898.23;;;0.09;64.11
41102;BME280;26845;50.190;19.178;2023-02-28T02:02:02;99894.79;;;0.08;64.12
41102;BME280;26845;50.190;19.178;2023-02-28T02:04:37;99893.09;;;0.04;64.00
41102;BME280;26845;50.190;19.178;2023-02-28T02:07:05;99895.77;;;0.02;63.98
41102;BME280;26845;50.190;19.178;2023-02-28T02:09:32;99891.36;;;-0.07;63.76
41102;BME280;26845;50.190;19.178;2023-02-28T02:12:02;99888.90;;;-0.17;63.55
41102;BME280;26845;50.190;19.178;2023-02-28T02:15:13;99891.65;;;-0.30;63.92
41102;BME280;26845;50.190;19.178;2023-02-28T02:17:42;99883.44;;;-0.36;63.70
41102;BME280;26845;50.190;19.178;2023-02-28T02:25:42;99892.40;;;-0.41;63.91
41102;BME280;26845;50.190;19.178;2023-02-28T02:28:41;99890.52;;;-0.44;64.07
41102;BME280;26845;50.190;19.178;2023-02-28T02:36:52;99888.83;;;-0.61;64.11
41102;BME280;26845;50.190;19.178;2023-02-28T02:40:27;99888.38;;;-0.67;64.37
41102;BME280;26845;50.190;19.178;2023-02-28T02:45:07;99883.83;;;-0.79;64.57
41102;BME280;26845;50.190;19.178;2023-02-28T02:47:35;99881.11;;;-0.85;64.76
41102;BME280;26845;50.190;19.178;2023-02-28T02:50:05;99880.64;;;-0.82;64.84
41102;BME280;26845;50.190;19.178;2023-02-28T02:52:40;99882.21;;;-0.81;64.50
41102;BME280;26845;50.190;19.178;2023-02-28T02:55:09;99878.88;;;-0.83;64.49
41102;BME280;26845;50.190;19.178;2023-02-28T03:00:10;99881.08;;;-0.86;64.57
41102;BME280;26845;50.190;19.178;2023-02-28T03:02:37;99883.48;;;-0.85;64.65
41102;BME280;26845;50.190;19.178;2023-02-28T03:05:49;99888.00;;;-0.85;64.35
41102;BME280;26845;50.190;19.178;2023-02-28T03:08:16;99891.17;;;-0.89;64.56
41102;BME280;26845;50.190;19.178;2023-02-28T03:10:44;99892.92;;;-0.89;64.59
41102;BME280;26845;50.190;19.178;2023-02-28T03:13:23;99887.83;;;-0.92;64.67
41102;BME280;26845;50.190;19.178;2023-02-28T03:24:08;99888.94;;;-0.99;64.81
41102;BME280;26845;50.190;19.178;2023-02-28T03:26:42;99890.88;;;-0.99;64.89
41102;BME280;26845;50.190;19.178;2023-02-28T03:29:33;99887.21;;;-0.98;65.28
41102;BME280;26845;50.190;19.178;2023-02-28T03:32:21;99894.02;;;-1.00;64.96
41102;BME280;26845;50.190;19.178;2023-02-28T03:34:59;99895.58;;;-1.00;65.45
41102;BME280;26845;50.190;19.178;2023-02-28T03:37:30;99884.95;;;-1.04;65.23
41102;BME280;26845;50.190;19.178;2023-02-28T03:40:00;99891.73;;;-1.05;65.40
41102;BME280;26845;50.190;19.178;2023-02-28T03:42:31;99895.25;;;-1.08;65.34
41102;BME280;26845;50.190;19.178;2023-02-28T03:44:59;99894.98;;;-1.11;65.57
41102;BME280;26845;50.190;19.178;2023-02-28T03:47:37;99894.77;;;-1.15;65.48
41102;BME280;26845;50.190;19.178;2023-02-28T03:50:19;99900.33;;;-1.21;65.61
41102;BME280;26845;50.190;19.178;2023-02-28T03:55:28;99901.90;;;-1.23;65.82
41102;BME280;26845;50.190;19.178;2023-02-28T03:58:04;99900.42;;;-1.26;65.62
41102;BME280;26845;50.190;19.178;2023-02-28T04:00:41;99904.34;;;-1.28;65.96
41102;BME280;26845;50.190;19.178;2023-02-28T04:03:08;99905.94;;;-1.31;65.76
41102;BME280;26845;50.190;19.178;2023-02-28T04:05:46;99909.22;;;-1.30;65.80
41102;BME280;26845;50.190;19.178;2023-02-28T04:08:13;99909.79;;;-1.29;66.39
41102;BME280;26845;50.190;19.178;2023-02-28T04:10:40;99900.48;;;-1.30;66.13
41102;BME280;26845;50.190;19.178;2023-02-28T04:13:08;99907.95;;;-1.29;66.10
41102;BME280;26845;50.190;19.178;2023-02-28T04:15:34;99911.42;;;-1.29;66.24
41102;BME280;26845;50.190;19.178;2023-02-28T04:18:00;99913.36;;;-1.30;66.25
41102;BME280;26845;50.190;19.178;2023-02-28T04:20:27;99917.17;;;-1.30;66.29
41102;BME280;26845;50.190;19.178;2023-02-28T04:22:53;99918.65;;;-1.31;66.40
41102;BME280;26845;50.190;19.178;2023-02-28T04:25:22;99920.88;;;-1.31;66.58
41102;BME280;26845;50.190;19.178;2023-02-28T04:27:47;99922.30;;;-1.31;66.57
41102;BME280;26845;50.190;19.178;2023-02-28T04:30:14;99922.96;;;-1.34;66.35
41102;BME280;26845;50.190;19.178;2023-02-28T04:32:40;99929.22;;;-1.34;66.43
41102;BME280;26845;50.190;19.178;2023-02-28T04:35:06;99933.46;;;-1.34;66.68
41102;BME280;26845;50.190;19.178;2023-02-28T04:37:32;99933.57;;;-1.37;66.72
41102;BME280;26845;50.190;19.178;2023-02-28T04:40:01;99935.44;;;-1.38;67.09
41102;BME280;26845;50.190;19.178;2023-02-28T04:42:27;99940.89;;;-1.40;67.01
41102;BME280;26845;50.190;19.178;2023-02-28T04:44:53;99937.17;;;-1.42;66.85
41102;BME280;26845;50.190;19.178;2023-02-28T04:47:19;99936.28;;;-1.44;67.01
41102;BME280;26845;50.190;19.178;2023-02-28T04:49:46;99933.81;;;-1.48;67.01
41102;BME280;26845;50.190;19.178;2023-02-28T04:52:12;99931.71;;;-1.51;67.25
41102;BME280;26845;50.190;19.178;2023-02-28T04:54:38;99936.38;;;-1.52;67.36
41102;BME280;26845;50.190;19.178;2023-02-28T04:57:04;99937.60;;;-1.51;67.63
41102;BME280;26845;50.190;19.178;2023-02-28T04:59:30;99937.80;;;-1.53;67.36
41102;BME280;26845;50.190;19.178;2023-02-28T05:01:56;99935.45;;;-1.54;67.42
41102;BME280;26845;50.190;19.178;2023-02-28T05:04:23;99933.95;;;-1.55;67.46
41102;BME280;26845;50.190;19.178;2023-02-28T05:06:49;99940.48;;;-1.55;67.67
41102;BME280;26845;50.190;19.178;2023-02-28T05:09:15;99937.09;;;-1.57;67.77
41102;BME280;26845;50.190;19.178;2023-02-28T05:11:41;99936.54;;;-1.57;67.81
41102;BME280;26845;50.190;19.178;2023-02-28T05:14:13;99935.79;;;-1.57;67.51
41102;BME280;26845;50.190;19.178;2023-02-28T05:16:39;99934.06;;;-1.61;68.03
41102;BME280;26845;50.190;19.178;2023-02-28T05:19:05;99938.64;;;-1.63;67.67
41102;BME280;26845;50.190;19.178;2023-02-28T05:21:32;99939.69;;;-1.67;67.69
41102;BME280;26845;50.190;19.178;2023-02-28T05:24:20;99939.10;;;-1.68;68.12
41102;BME280;26845;50.190;19.178;2023-02-28T05:26:49;99938.31;;;-1.68;67.90
41102;BME280;26845;50.190;19.178;2023-02-28T05:29:16;99939.61;;;-1.68;67.79
41102;BME280;26845;50.190;19.178;2023-02-28T05:31:42;99944.30;;;-1.66;68.31
41102;BME280;26845;50.190;19.178;2023-02-28T05:34:08;99944.94;;;-1.64;68.40
41102;BME280;26845;50.190;19.178;2023-02-28T05:36:38;99949.64;;;-1.64;68.15
41102;BME280;26845;50.190;19.178;2023-02-28T05:39:05;99952.33;;;-1.65;68.13
41102;BME280;26845;50.190;19.178;2023-02-28T05:41:32;99954.92;;;-1.65;68.26
41102;BME280;26845;50.190;19.178;2023-02-28T05:43:58;99960.66;;;-1.66;68.29
41102;BME280;26845;50.190;19.178;2023-02-28T05:46:25;99960.75;;;-1.66;68.51
41102;BME280;26845;50.190;19.178;2023-02-28T05:48:51;99964.83;;;-1.67;68.24
41102;BME280;26845;50.190;19.178;2023-02-28T05:51:18;99967.55;;;-1.67;68.67
41102;BME280;26845;50.190;19.178;2023-02-28T05:53:44;99960.25;;;-1.67;68.63
41102;BME280;26845;50.190;19.178;2023-02-28T05:56:10;99964.10;;;-1.67;68.58
41102;BME280;26845;50.190;19.178;2023-02-28T05:58:37;99971.73;;;-1.70;68.34
41102;BME280;26845;50.190;19.178;2023-02-28T06:01:23;99974.17;;;-1.62;69.91
41102;BME280;26845;50.190;19.178;2023-02-28T06:03:49;99977.36;;;-1.54;69.44
41102;BME280;26845;50.190;19.178;2023-02-28T06:06:15;99975.27;;;-1.60;68.85
41102;BME280;26845;50.190;19.178;2023-02-28T06:08:41;99980.92;;;-1.63;68.85
41102;BME280;26845;50.190;19.178;2023-02-28T06:11:08;99980.20;;;-1.67;68.83
41102;BME280;26845;50.190;19.178;2023-02-28T06:13:35;99981.83;;;-1.68;69.07
41102;BME280;26845;50.190;19.178;2023-02-28T06:16:01;99983.30;;;-1.70;69.17
41102;BME280;26845;50.190;19.178;2023-02-28T06:18:29;99992.45;;;-1.71;69.46
41102;BME280;26845;50.190;19.178;2023-02-28T06:20:55;99993.59;;;-1.69;69.59
41102;BME280;26845;50.190;19.178;2023-02-28T06:23:24;99991.58;;;-1.67;69.49
41102;BME280;26845;50.190;19.178;2023-02-28T06:25:52;99994.48;;;-1.65;69.48
41102;BME280;26845;50.190;19.178;2023-02-28T06:28:18;100004.32;;;-1.64;69.56
41102;BME280;26845;50.190;19.178;2023-02-28T06:30:44;100001.23;;;-1.60;69.43
41102;BME280;26845;50.190;19.178;2023-02-28T06:33:10;99998.13;;;-1.56;69.53
41102;BME280;26845;50.190;19.178;2023-02-28T06:35:37;100002.91;;;-1.53;69.38
41102;BME280;26845;50.190;19.178;2023-02-28T06:38:04;100000.73;;;-1.50;69.72
41102;BME280;26845;50.190;19.178;2023-02-28T06:40:30;99999.67;;;-1.48;69.98
41102;BME280;26845;50.190;19.178;2023-02-28T06:42:59;99999.26;;;-1.45;69.87
41102;BME280;26845;50.190;19.178;2023-02-28T06:45:26;100008.66;;;-1.45;69.96
41102;BME280;26845;50.190;19.178;2023-02-28T06:47:52;100000.73;;;-1.43;69.67
41102;BME280;26845;50.190;19.178;2023-02-28T06:50:19;99999.30;;;-1.40;70.04
41102;BME280;26845;50.190;19.178;2023-02-28T06:52:46;100001.02;;;-1.35;69.97
41102;BME280;26845;50.190;19.178;2023-02-28T06:55:12;100003.20;;;-1.41;69.78
41102;BME280;26845;50.190;19.178;2023-02-28T06:57:38;100008.83;;;-1.47;69.97
41102;BME280;26845;50.190;19.178;2023-02-28T07:00:07;100012.10;;;-1.54;69.95
41102;BME280;26845;50.190;19.178;2023-02-28T07:02:35;100012.85;;;-1.49;70.24
41102;BME280;26845;50.190;19.178;2023-02-28T07:05:00;100018.81;;;-1.42;70.27
41102;BME280;26845;50.190;19.178;2023-02-28T07:07:28;100018.06;;;-1.39;70.39
41102;BME280;26845;50.190;19.178;2023-02-28T07:09:55;100018.39;;;-1.42;70.48
41102;BME280;26845;50.190;19.178;2023-02-28T07:12:20;100022.34;;;-1.50;70.00
41102;BME280;26845;50.190;19.178;2023-02-28T07:14:46;100024.27;;;-1.58;69.99
41102;BME280;26845;50.190;19.178;2023-02-28T07:17:12;100027.23;;;-1.64;70.07
41102;BME280;26845;50.190;19.178;2023-02-28T07:19:39;100027.77;;;-1.63;70.23
41102;BME280;26845;50.190;19.178;2023-02-28T07:22:06;100031.59;;;-1.60;70.30
41102;BME280;26845;50.190;19.178;2023-02-28T07:24:32;100027.75;;;-1.54;70.54
41102;BME280;26845;50.190;19.178;2023-02-28T07:26:58;100028.09;;;-1.53;70.16
41102;BME280;26845;50.190;19.178;2023-02-28T07:29:25;100029.83;;;-1.55;70.41
41102;BME280;26845;50.190;19.178;2023-02-28T07:31:52;100031.27;;;-1.56;70.28
41102;BME280;26845;50.190;19.178;2023-02-28T07:34:19;100031.30;;;-1.55;70.15
41102;BME280;26845;50.190;19.178;2023-02-28T07:36:45;100030.55;;;-1.53;70.08
41102;BME280;26845;50.190;19.178;2023-02-28T07:39:11;100031.81;;;-1.50;69.95
41102;BME280;26845;50.190;19.178;2023-02-28T07:41:37;100033.75;;;-1.50;70.12
41102;BME280;26845;50.190;19.178;2023-02-28T07:44:11;100028.98;;;-1.44;70.39
41102;BME280;26845;50.190;19.178;2023-02-28T07:46:37;100029.81;;;-1.39;70.42
41102;BME280;26845;50.190;19.178;2023-02-28T07:49:04;100030.74;;;-1.27;70.05
41102;BME280;26845;50.190;19.178;2023-02-28T07:51:31;100033.17;;;-1.15;70.33
41102;BME280;26845;50.190;19.178;2023-02-28T07:53:59;100027.94;;;-1.03;70.40
41102;BME280;26845;50.190;19.178;2023-02-28T07:56:25;100028.65;;;-0.93;70.42
41102;BME280;26845;50.190;19.178;2023-02-28T07:58:51;100029.48;;;-0.83;70.05
41102;BME280;26845;50.190;19.178;2023-02-28T08:01:17;100029.60;;;-0.79;69.97
41102;BME280;26845;50.190;19.178;2023-02-28T08:03:44;100028.34;;;-0.78;70.11
41102;BME280;26845;50.190;19.178;2023-02-28T08:06:18;100027.90;;;-0.74;70.13
41102;BME280;26845;50.190;19.178;2023-02-28T08:08:43;100030.84;;;-0.69;70.12
41102;BME280;26845;50.190;19.178;2023-02-28T08:11:10;100026.27;;;-0.65;69.70
41102;BME280;26845;50.190;19.178;2023-02-28T08:13:36;100029.99;;;-0.63;69.95
41102;BME280;26845;50.190;19.178;2023-02-28T08:16:02;100026.44;;;-0.54;69.92
41102;BME280;26845;50.190;19.178;2023-02-28T08:18:28;100027.77;;;-0.43;69.94
41102;BME280;26845;50.190;19.178;2023-02-28T08:20:54;100027.02;;;-0.41;69.68
41102;BME280;26845;50.190;19.178;2023-02-28T08:23:20;100026.96;;;-0.35;69.82
41102;BME280;26845;50.190;19.178;2023-02-28T08:25:53;100029.03;;;-0.25;69.98
41102;BME280;26845;50.190;19.178;2023-02-28T08:28:20;100032.35;;;-0.18;69.85
41102;BME280;26845;50.190;19.178;2023-02-28T08:30:46;100030.73;;;-0.05;69.98
41102;BME280;26845;50.190;19.178;2023-02-28T08:33:13;100031.45;;;0.06;70.15
41102;BME280;26845;50.190;19.178;2023-02-28T08:35:39;100030.89;;;0.23;70.34
41102;BME280;26845;50.190;19.178;2023-02-28T08:38:05;100035.55;;;0.39;70.05
41102;BME280;26845;50.190;19.178;2023-02-28T08:40:31;100032.04;;;0.54;70.04
41102;BME280;26845;50.190;19.178;2023-02-28T08:42:57;100036.59;;;0.69;69.44
41102;BME280;26845;50.190;19.178;2023-02-28T08:45:25;100032.42;;;0.75;69.37
41102;BME280;26845;50.190;19.178;2023-02-28T08:47:50;100032.60;;;0.88;69.23
41102;BME280;26845;50.190;19.178;2023-02-28T08:50:18;100032.39;;;1.03;69.47
41102;BME280;26845;50.190;19.178;2023-02-28T08:52:43;100034.16;;;1.22;69.35
41102;BME280;26845;50.190;19.178;2023-02-28T08:55:10;100031.89;;;1.46;69.49
41102;BME280;26845;50.190;19.178;2023-02-28T08:57:36;100028.35;;;1.70;69.09
41102;BME280;26845;50.190;19.178;2023-02-28T09:00:02;100029.67;;;1.96;68.88
41102;BME280;26845;50.190;19.178;2023-02-28T09:02:30;100025.94;;;2.18;68.49
41102;BME280;26845;50.190;19.178;2023-02-28T09:04:58;100028.20;;;2.37;68.55
41102;BME280;26845;50.190;19.178;2023-02-28T09:07:24;100025.61;;;2.58;68.45
41102;BME280;26845;50.190;19.178;2023-02-28T09:09:51;100032.23;;;2.76;68.07
41102;BME280;26845;50.190;19.178;2023-02-28T09:12:25;100027.82;;;2.89;67.48
41102;BME280;26845;50.190;19.178;2023-02-28T09:14:51;100029.00;;;2.99;67.48
41102;BME280;26845;50.190;19.178;2023-02-28T09:17:18;100024.63;;;3.05;67.02
41102;BME280;26845;50.190;19.178;2023-02-28T09:19:43;100022.05;;;3.06;67.13
41102;BME280;26845;50.190;19.178;2023-02-28T09:22:10;100020.17;;;3.08;66.48
41102;BME280;26845;50.190;19.178;2023-02-28T09:24:37;100020.92;;;2.94;66.00
41102;BME280;26845;50.190;19.178;2023-02-28T09:27:05;100020.48;;;2.94;66.04
41102;BME280;26845;50.190;19.178;2023-02-28T09:29:34;100016.37;;;2.99;65.99
41102;BME280;26845;50.190;19.178;2023-02-28T09:32:00;100022.91;;;2.89;65.10
41102;BME280;26845;50.190;19.178;2023-02-28T09:34:27;100022.13;;;2.74;64.78
41102;BME280;26845;50.190;19.178;2023-02-28T09:36:52;100020.94;;;2.62;64.95
41102;BME280;26845;50.190;19.178;2023-02-28T09:39:22;100026.98;;;2.57;64.58
41102;BME280;26845;50.190;19.178;2023-02-28T09:41:51;100026.16;;;2.47;64.70
41102;BME280;26845;50.190;19.178;2023-02-28T09:46:57;100029.52;;;2.41;65.30
41102;BME280;26845;50.190;19.178;2023-02-28T09:49:33;100027.77;;;2.73;65.32
41102;BME280;26845;50.190;19.178;2023-02-28T09:52:10;100025.63;;;3.23;65.62
41102;BME280;26845;50.190;19.178;2023-02-28T09:54:36;100027.42;;;3.77;65.07
41102;BME280;26845;50.190;19.178;2023-02-28T10:04:59;100020.42;;;5.53;63.16
41102;BME280;26845;50.190;19.178;2023-02-28T10:10:24;100013.70;;;6.40;63.32
41102;BME280;26845;50.190;19.178;2023-02-28T10:12:57;100016.08;;;6.74;62.75
41102;BME280;26845;50.190;19.178;2023-02-28T10:15:30;100013.02;;;6.97;61.60
41102;BME280;26845;50.190;19.178;2023-02-28T10:18:04;100012.79;;;7.08;62.44
41102;BME280;26845;50.190;19.178;2023-02-28T10:20:38;100010.63;;;7.47;62.59
41102;BME280;26845;50.190;19.178;2023-02-28T10:23:41;100008.11;;;7.73;60.96
41102;BME280;26845;50.190;19.178;2023-02-28T10:26:31;100004.38;;;7.79;59.24
41102;BME280;26845;50.190;19.178;2023-02-28T10:28:57;100002.77;;;7.67;59.21
41102;BME280;26845;50.190;19.178;2023-02-28T10:31:23;100006.04;;;7.48;58.26
41102;BME280;26845;50.190;19.178;2023-02-28T10:33:49;100000.94;;;7.48;59.39
41102;BME280;26845;50.190;19.178;2023-02-28T10:36:18;100000.30;;;7.71;60.59
41102;BME280;26845;50.190;19.178;2023-02-28T10:38:45;99993.36;;;8.02;59.90
41102;BME280;26845;50.190;19.178;2023-02-28T10:41:14;99990.83;;;8.12;59.29
41102;BME280;26845;50.190;19.178;2023-02-28T10:43:41;99992.59;;;8.33;59.35
41102;BME280;26845;50.190;19.178;2023-02-28T10:48:43;99992.48;;;8.24;58.19
41102;BME280;26845;50.190;19.178;2023-02-28T10:51:12;99991.48;;;7.91;58.49
41102;BME280;26845;50.190;19.178;2023-02-28T10:53:48;99989.73;;;7.62;58.20
41102;BME280;26845;50.190;19.178;2023-02-28T10:56:21;99988.34;;;7.70;59.21
41102;BME280;26845;50.190;19.178;2023-02-28T11:01:22;99982.74;;;7.80;58.52
41102;BME280;26845;50.190;19.178;2023-02-28T11:03:49;99981.02;;;7.92;58.29
41102;BME280;26845;50.190;19.178;2023-02-28T11:06:21;99978.54;;;8.08;58.34
41102;BME280;26845;50.190;19.178;2023-02-28T11:08:56;99976.60;;;8.10;58.26
41102;BME280;26845;50.190;19.178;2023-02-28T11:11:25;99974.79;;;8.46;58.42
41102;BME280;26845;50.190;19.178;2023-02-28T11:13:56;99976.09;;;8.78;58.43
41102;BME280;26845;50.190;19.178;2023-02-28T11:16:22;99971.38;;;9.02;58.02
41102;BME280;26845;50.190;19.178;2023-02-28T11:18:57;99962.81;;;9.27;58.27
41102;BME280;26845;50.190;19.178;2023-02-28T11:21:30;99963.83;;;9.45;56.37
41102;BME280;26845;50.190;19.178;2023-02-28T11:24:23;99958.96;;;9.57;57.50
41102;BME280;26845;50.190;19.178;2023-02-28T11:26:51;99954.23;;;9.92;57.17
41102;BME280;26845;50.190;19.178;2023-02-28T11:29:28;99951.46;;;10.01;55.85
41102;BME280;26845;50.190;19.178;2023-02-28T11:34:32;99950.30;;;9.75;55.44
41102;BME280;26845;50.190;19.178;2023-02-28T11:36:59;99951.05;;;9.79;56.01
41102;BME280;26845;50.190;19.178;2023-02-28T11:39:28;99944.41;;;9.89;54.98
41102;BME280;26845;50.190;19.178;2023-02-28T11:42:09;99939.02;;;9.85;55.72
41102;BME280;26845;50.190;19.178;2023-02-28T12:03:55;99905.70;;;10.86;55.26
41102;BME280;26845;50.190;19.178;2023-02-28T12:09:40;99909.98;;;10.79;53.94
41102;BME280;26845;50.190;19.178;2023-02-28T12:20:48;99900.16;;;10.83;53.60
41102;BME280;26845;50.190;19.178;2023-02-28T12:26:14;99907.81;;;11.15;52.74
41102;BME280;26845;50.190;19.178;2023-02-28T12:28:51;99908.92;;;11.04;51.55
41102;BME280;26845;50.190;19.178;2023-02-28T12:31:23;99906.66;;;10.92;52.44
41102;BME280;26845;50.190;19.178;2023-02-28T12:33:55;99902.77;;;10.96;52.58
41102;BME280;26845;50.190;19.178;2023-02-28T12:36:25;99902.39;;;11.12;52.83
41102;BME280;26845;50.190;19.178;2023-02-28T12:39:12;99894.38;;;11.38;53.42
41102;BME280;26845;50.190;19.178;2023-02-28T12:41:47;99897.69;;;11.74;53.29
41102;BME280;26845;50.190;19.178;2023-02-28T12:44:18;99890.98;;;11.97;52.80
41102;BME280;26845;50.190;19.178;2023-02-28T12:46:49;99893.00;;;12.14;52.62
41102;BME280;26845;50.190;19.178;2023-02-28T12:52:06;99891.89;;;11.82;50.62
41102;BME280;26845;50.190;19.178;2023-02-28T12:55:00;99890.25;;;11.48;50.94
41102;BME280;26845;50.190;19.178;2023-02-28T12:57:42;99889.22;;;11.41;51.80
41102;BME280;26845;50.190;19.178;2023-02-28T13:00:17;99891.02;;;11.63;51.69
41102;BME280;26845;50.190;19.178;2023-02-28T13:03:38;99890.06;;;11.77;51.33
41102;BME280;26845;50.190;19.178;2023-02-28T13:06:22;99883.33;;;11.99;51.24
41102;BME280;26845;50.190;19.178;2023-02-28T13:09:09;99878.70;;;12.20;51.25
41102;BME280;26845;50.190;19.178;2023-02-28T13:11:39;99886.33;;;12.28;50.20
41102;BME280;26845;50.190;19.178;2023-02-28T13:14:06;99884.06;;;11.95;49.13
41102;BME280;26845;50.190;19.178;2023-02-28T13:19:21;99883.49;;;11.83;50.32
41102;BME280;26845;50.190;19.178;2023-02-28T13:21:50;99882.34;;;11.96;49.98
41102;BME280;26845;50.190;19.178;2023-02-28T13:29:36;99879.52;;;11.83;49.33
41102;BME280;26845;50.190;19.178;2023-02-28T13:39:50;99871.48;;;11.64;48.38
41102;BME280;26845;50.190;19.178;2023-02-28T13:55:27;99863.27;;;11.29;49.09
41102;BME280;26845;50.190;19.178;2023-02-28T14:04:43;99861.28;;;11.01;48.49
41102;BME280;26845;50.190;19.178;2023-02-28T14:07:05;99856.56;;;11.05;47.22
41102;BME280;26845;50.190;19.178;2023-02-28T14:09:45;99858.59;;;10.75;47.04
41102;BME280;26845;50.190;19.178;2023-02-28T14:15:46;99853.86;;;10.17;46.74
41102;BME280;26845;50.190;19.178;2023-02-28T14:18:20;99854.96;;;9.84;46.94
41102;BME280;26845;50.190;19.178;2023-02-28T14:20:47;99851.25;;;9.72;47.65
41102;BME280;26845;50.190;19.178;2023-02-28T14:34:43;99846.98;;;9.59;47.26
41102;BME280;26845;50.190;19.178;2023-02-28T14:37:15;99845.09;;;9.72;47.17
41102;BME280;26845;50.190;19.178;2023-02-28T14:39:43;99844.66;;;9.70;46.68
41102;BME280;26845;50.190;19.178;2023-02-28T14:44:56;99839.05;;;9.71;46.75
41102;BME280;26845;50.190;19.178;2023-02-28T14:47:23;99844.73;;;9.55;46.15
41102;BME280;26845;50.190;19.178;2023-02-28T14:49:50;99842.60;;;9.48;46.83
41102;BME280;26845;50.190;19.178;2023-02-28T14:52:20;99846.79;;;9.56;46.61
41102;BME280;26845;50.190;19.178;2023-02-28T14:54:57;99846.98;;;9.35;46.19
41102;BME280;26845;50.190;19.178;2023-02-28T14:57:32;99843.70;;;9.06;46.09
41102;BME280;26845;50.190;19.178;2023-02-28T15:02:37;99845.98;;;8.76;45.33
41102;BME280;26845;50.190;19.178;2023-02-28T15:07:38;99853.77;;;8.14;46.25
41102;BME280;26845;50.190;19.178;2023-02-28T15:10:35;99854.27;;;8.14;47.05
41102;BME280;26845;50.190;19.178;2023-02-28T15:13:11;99853.90;;;8.22;46.70
41102;BME280;26845;50.190;19.178;2023-02-28T15:21:07;99851.52;;;8.23;46.15
41102;BME280;26845;50.190;19.178;2023-02-28T15:23:35;99853.80;;;8.00;45.82
41102;BME280;26845;50.190;19.178;2023-02-28T15:26:02;99858.21;;;7.67;46.07
41102;BME280;26845;50.190;19.178;2023-02-28T15:28:29;99852.75;;;7.36;45.61
41102;BME280;26845;50.190;19.178;2023-02-28T15:31:28;99853.22;;;7.20;45.80
41102;BME280;26845;50.190;19.178;2023-02-28T15:33:56;99853.00;;;6.99;46.18
41102;BME280;26845;50.190;19.178;2023-02-28T15:36:29;99855.11;;;6.82;46.21